Buckingham, Texas
Current Conditions -  °F | °C
As of 11:47 AM on Thursday 30 Oct 2014 (Local Time) from KADS Reporting Station
Clear Clear  
Wind Chill: 68°   Ceiling: Unl
Heat Index: 68°   Visibility: 13mi
Dew Point: 46°   Wind: 9mph
Humidity: 46%   Direction: 180°S
Pressure: 30.17"   Gusts: NA
Location:  32.9743°N, 96.7425°W
Report Text: KADS 301647Z 18008KT 13SM SKC 20/08 A3017
Loading
Personal Weather Stations






























Interactive Weather Map
Tropical Storm Tracking
New forecast layout! Learn more

10-Day Weather Forecast

Advertisements
Track Severe Weather on mobile